createdAt,value
2023-05-17T00:02:45.703Z,7.37
2023-05-17T00:08:04.106Z,7.37
2023-05-17T00:13:22.711Z,7.56
2023-05-17T00:18:41.584Z,7.37
2023-05-17T00:24:00.199Z,7.31
2023-05-17T00:29:18.797Z,7.12
2023-05-17T00:34:36.970Z,7.19
2023-05-17T00:39:55.876Z,7.12
2023-05-17T00:45:14.530Z,7.06
2023-05-17T00:50:33.123Z,7.06
2023-05-17T00:55:51.383Z,7
2023-05-17T01:01:10.015Z,6.87
2023-05-17T01:06:28.709Z,6.87
2023-05-17T01:11:47.626Z,6.81
2023-05-17T01:17:06.355Z,6.81
2023-05-17T01:22:24.919Z,6.81
2023-05-17T01:27:43.361Z,6.69
2023-05-17T01:33:01.975Z,6.5
2023-05-17T01:38:20.874Z,6.44
2023-05-17T01:43:39.617Z,6.31
2023-05-17T01:48:58.231Z,6.25
2023-05-17T01:54:16.703Z,6.25
2023-05-17T02:04:41.921Z,6.06
2023-05-17T02:10:00.307Z,6
2023-05-17T02:15:19.295Z,5.87
2023-05-17T02:20:39.065Z,5.81
2023-05-17T02:25:57.737Z,5.69
2023-05-17T02:31:16.565Z,5.81
2023-05-17T02:36:36.405Z,5.87
2023-05-17T02:41:54.876Z,5.81
2023-05-17T02:47:13.662Z,5.87
2023-05-17T02:52:32.490Z,6
2023-05-17T02:57:51.172Z,6.12
2023-05-17T03:03:10.007Z,6.25
2023-05-17T03:08:28.599Z,6.19
2023-05-17T03:13:47.001Z,6.25
2023-05-17T03:19:05.747Z,6.25
2023-05-17T03:24:24.475Z,6.19
2023-05-17T03:29:42.547Z,6.19
2023-05-17T03:35:01.388Z,6.19
2023-05-17T03:40:19.986Z,6.31
2023-05-17T03:45:38.313Z,6.25
2023-05-17T03:50:57.074Z,6.19
2023-05-17T03:56:15.503Z,6.12
2023-05-17T04:01:33.652Z,6.06
2023-05-17T04:06:52.294Z,6.12
2023-05-17T04:12:11.070Z,6.19
2023-05-17T04:17:29.899Z,6.19
2023-05-17T04:22:48.440Z,6.19
2023-05-17T04:28:07.377Z,6.25
2023-05-17T04:33:25.910Z,6.37
2023-05-17T04:38:44.080Z,6.44
2023-05-17T04:44:03.818Z,6.5
2023-05-17T04:49:22.551Z,6.56
2023-05-17T04:54:42.153Z,6.62
2023-05-17T05:00:02.321Z,6.69
2023-05-17T05:05:21.404Z,6.87
2023-05-17T05:10:41.419Z,7
2023-05-17T05:16:00.221Z,7.25
2023-05-17T05:21:18.919Z,7.31
2023-05-17T05:26:38.658Z,7.44
2023-05-17T05:31:57.575Z,7.5
2023-05-17T05:37:18.554Z,7.62
2023-05-17T05:42:36.727Z,7.81
2023-05-17T05:47:56.056Z,8
2023-05-17T05:53:19.193Z,8.13
2023-05-17T05:58:32.880Z,8.25
2023-05-17T06:03:51.738Z,8.31
2023-05-17T06:09:10.276Z,8.5
2023-05-17T06:14:29.097Z,8.75
2023-05-17T06:19:47.761Z,9.13
2023-05-17T06:25:09.081Z,9.25
2023-05-17T06:30:27.005Z,9.5
2023-05-17T06:35:55.233Z,9.75
2023-05-17T06:41:04.493Z,9.88
2023-05-17T06:46:23.264Z,10.19
2023-05-17T06:51:42.035Z,10.56
2023-05-17T06:57:00.665Z,10.88
2023-05-17T07:02:19.296Z,11.06
2023-05-17T07:07:38.424Z,11.63
2023-05-17T07:12:57.633Z,11.81
2023-05-17T07:18:16.886Z,11.75
2023-05-17T07:23:35.914Z,12.25
2023-05-17T07:28:54.658Z,12.13
2023-05-17T07:34:14.195Z,12.56
2023-05-17T07:39:32.709Z,12.25
2023-05-17T07:44:51.147Z,12.37
2023-05-17T07:50:09.925Z,12.5
2023-05-17T07:55:28.800Z,12.81
2023-05-17T08:00:47.254Z,13.06
2023-05-17T08:06:06.174Z,12.56
2023-05-17T08:11:24.771Z,12.63
2023-05-17T08:16:43.389Z,12.69
2023-05-17T08:22:02.032Z,12.75
2023-05-17T08:27:20.570Z,11.94
2023-05-17T08:32:39.106Z,11.94
2023-05-17T08:37:57.811Z,11.94
2023-05-17T08:43:16.115Z,12.25
2023-05-17T08:48:34.975Z,12.69
2023-05-17T08:53:53.268Z,12.69
2023-05-17T08:59:11.660Z,12.75
2023-05-17T09:04:30.033Z,12.81
2023-05-17T09:09:48.332Z,13.13
2023-05-17T09:15:06.563Z,12.63
2023-05-17T09:20:25.004Z,12.56
2023-05-17T09:25:43.181Z,12.5
2023-05-17T09:31:02.137Z,12.63
2023-05-17T09:36:20.457Z,12.69
2023-05-17T09:41:39.484Z,13.19
2023-05-17T09:46:58.240Z,13
2023-05-17T09:52:16.461Z,12.69
2023-05-17T09:57:34.888Z,13
2023-05-17T10:08:00.951Z,14.13
2023-05-17T10:13:19.902Z,14.5
2023-05-17T10:18:38.534Z,14.13
2023-05-17T10:23:57.265Z,13.69
2023-05-17T10:29:15.620Z,13.94
2023-05-17T10:34:34.057Z,13.69
2023-05-17T10:39:52.380Z,13.69
2023-05-17T10:45:10.842Z,13.69
2023-05-17T10:50:29.724Z,13.75
2023-05-17T10:55:48.526Z,13.88
2023-05-17T11:01:07.105Z,13.62
2023-05-17T11:06:26.125Z,13.81
2023-05-17T11:11:44.524Z,14.06
2023-05-17T11:17:03.381Z,14.63
2023-05-17T11:22:21.839Z,15.56
2023-05-17T11:27:41.002Z,16
2023-05-17T11:33:00.476Z,16.69
2023-05-17T11:38:18.947Z,15.81
2023-05-17T11:43:37.226Z,15.19
2023-05-17T11:48:55.835Z,15
2023-05-17T11:54:14.426Z,14.94
2023-05-17T11:59:33.300Z,15.75
2023-05-17T12:04:52.451Z,16.5
2023-05-17T12:10:11.306Z,16
2023-05-17T12:15:29.980Z,16
2023-05-17T12:20:48.762Z,16.06
2023-05-17T12:26:09.591Z,16.44
2023-05-17T12:31:29.193Z,17.12
2023-05-17T12:36:47.031Z,15.94
2023-05-17T12:42:05.943Z,17.69
2023-05-17T12:47:24.791Z,18.56
2023-05-17T12:52:43.677Z,18.56
2023-05-17T12:58:03.720Z,18.44
2023-05-17T13:03:21.769Z,17.31
2023-05-17T13:08:41.758Z,17.25
2023-05-17T13:14:00.376Z,18.56
2023-05-17T13:19:19.804Z,19.12
2023-05-17T13:24:38.313Z,18.44
2023-05-17T13:29:56.166Z,19.5
2023-05-17T13:35:14.791Z,19.87
2023-05-17T13:40:32.962Z,18
2023-05-17T13:45:51.021Z,18.5
2023-05-17T13:51:09.421Z,19.31
2023-05-17T13:56:28.253Z,19.37
2023-05-17T14:01:47.032Z,18.44
2023-05-17T14:07:05.812Z,16.81
2023-05-17T14:12:23.718Z,16.62
2023-05-17T14:17:42.506Z,18.12
2023-05-17T14:23:01.134Z,19.06
2023-05-17T14:28:19.968Z,19.62
2023-05-17T14:33:38.805Z,18.56
2023-05-17T14:38:57.173Z,19
2023-05-17T14:44:16.127Z,19.94
2023-05-17T14:49:34.774Z,19.81
2023-05-17T14:54:53.123Z,19.37
2023-05-17T15:00:11.713Z,18.31
2023-05-17T15:05:30.688Z,18.87
2023-05-17T15:10:49.668Z,19.5
2023-05-17T15:16:07.739Z,17.87
2023-05-17T15:21:26.054Z,17.31
2023-05-17T15:26:44.768Z,16.94
2023-05-17T15:32:04.186Z,18.44
2023-05-17T15:37:22.879Z,18
2023-05-17T15:42:42.091Z,18.5
2023-05-17T15:48:01.545Z,18.81
2023-05-17T15:53:20.076Z,18.5
2023-05-17T15:58:38.673Z,18.12
2023-05-17T16:03:57.194Z,17.62
2023-05-17T16:09:15.371Z,17.44
2023-05-17T16:14:36.794Z,17.87
2023-05-17T16:19:55.061Z,17.37
2023-05-17T16:25:13.473Z,17.25
2023-05-17T16:30:32.099Z,17.31
2023-05-17T16:35:50.703Z,17.19
2023-05-17T16:41:09.508Z,17.25
2023-05-17T16:51:34.962Z,16.81
2023-05-17T16:56:53.464Z,16.5
2023-05-17T17:02:12.119Z,16.44
2023-05-17T17:07:30.519Z,16.44
2023-05-17T17:12:49.044Z,16.19
2023-05-17T17:18:07.545Z,15.81
2023-05-17T17:23:26.124Z,15.75
2023-05-17T17:28:44.657Z,15.75
2023-05-17T17:34:03.198Z,15.56
2023-05-17T17:39:21.671Z,15.31
2023-05-17T17:44:40.053Z,15.25
2023-05-17T17:49:58.599Z,15.13
2023-05-17T17:55:17.023Z,14.81
2023-05-17T18:00:35.632Z,14.5
2023-05-17T18:05:53.754Z,14.31
2023-05-17T18:11:12.156Z,14.13
2023-05-17T18:16:30.756Z,13.88
2023-05-17T18:21:49.259Z,13.62
2023-05-17T18:27:07.922Z,13.44
2023-05-17T18:32:26.281Z,13.25
2023-05-17T18:37:44.623Z,13.06
2023-05-17T18:43:02.883Z,13
2023-05-17T18:48:21.051Z,12.69
2023-05-17T18:53:39.488Z,12.63
2023-05-17T18:58:57.763Z,12.44
2023-05-17T19:04:15.991Z,12.25
2023-05-17T19:09:34.249Z,12.13
2023-05-17T19:14:52.551Z,11.94
2023-05-17T19:20:11.400Z,11.69
2023-05-17T19:25:29.933Z,11.63
2023-05-17T19:30:48.555Z,11.56
2023-05-17T19:36:07.196Z,11.5
2023-05-17T19:41:26.006Z,11.5
2023-05-17T19:51:51.241Z,11.25
2023-05-17T19:57:09.536Z,10.94
2023-05-17T20:02:28.180Z,11
2023-05-17T20:07:46.445Z,10.81
2023-05-17T20:13:04.587Z,10.63
2023-05-17T20:18:22.876Z,10.31
2023-05-17T20:23:41.646Z,10.63
2023-05-17T20:29:00.436Z,10.63
2023-05-17T20:34:19.126Z,10.44
2023-05-17T20:39:37.832Z,10.25
2023-05-17T20:44:56.010Z,10.06
2023-05-17T20:50:14.166Z,10.13
2023-05-17T20:55:32.517Z,10.13
2023-05-17T21:00:50.775Z,10.25
2023-05-17T21:06:09.228Z,10.38
2023-05-17T21:16:34.497Z,10
2023-05-17T21:21:53.650Z,9.94
2023-05-17T21:27:12.335Z,9.88
2023-05-17T21:32:31.113Z,10
2023-05-17T21:37:49.403Z,10
2023-05-17T21:43:07.565Z,9.94
2023-05-17T21:48:25.927Z,10.25
2023-05-17T21:53:44.192Z,10.06
2023-05-17T21:59:02.963Z,10
2023-05-17T22:04:21.480Z,10.06
2023-05-17T22:09:39.691Z,9.88
2023-05-17T22:14:58.408Z,9.94
2023-05-17T22:20:17.235Z,9.88
2023-05-17T22:25:35.581Z,9.88
2023-05-17T22:30:53.924Z,9.88
2023-05-17T22:36:12.677Z,10
2023-05-17T22:41:31.163Z,9.88
2023-05-17T22:46:49.833Z,9.69
2023-05-17T22:52:08.079Z,9.63
2023-05-17T22:57:26.668Z,9.63
2023-05-17T23:02:45.224Z,9.44
2023-05-17T23:08:03.805Z,9.5
2023-05-17T23:13:22.232Z,9.56
2023-05-17T23:18:41.118Z,9.56
2023-05-17T23:23:59.714Z,9.69
2023-05-17T23:29:18.272Z,9.69
2023-05-17T23:34:39.619Z,9.81
2023-05-17T23:39:58.327Z,9.88
2023-05-17T23:45:17.028Z,9.63
2023-05-17T23:50:35.444Z,9.5
2023-05-17T23:55:53.764Z,9.31
